createdAt,value
2022-12-18T00:00:11.418Z,-11.56
2022-12-18T00:02:42.579Z,-11.59
2022-12-18T00:05:10.849Z,-11.32
2022-12-18T00:07:39.257Z,-11.32
2022-12-18T00:10:08.022Z,-11.09
2022-12-18T00:12:37.459Z,-10.79
2022-12-18T00:15:06.000Z,-9.89
2022-12-18T00:17:34.048Z,-10.03
2022-12-18T00:20:02.572Z,-10.49
2022-12-18T00:22:32.940Z,-10.86
2022-12-18T00:25:01.528Z,-11.01
2022-12-18T00:27:29.582Z,-11.17
2022-12-18T00:29:58.960Z,-11.20
2022-12-18T00:32:26.952Z,-10.92
2022-12-18T00:34:54.957Z,-10.54
2022-12-18T00:37:23.369Z,-10.24
2022-12-18T00:39:52.672Z,-9.94
2022-12-18T00:42:39.167Z,-10.81
2022-12-18T00:45:12.641Z,-11.09
2022-12-18T00:47:41.545Z,-11.41
2022-12-18T00:50:10.251Z,-11.24
2022-12-18T00:52:38.412Z,-11.47
2022-12-18T00:55:06.979Z,-11.52
2022-12-18T00:57:35.033Z,-11.64
2022-12-18T01:00:03.061Z,-11.67
2022-12-18T01:02:32.892Z,-11.83
2022-12-18T01:05:01.538Z,-11.92
2022-12-18T01:07:29.621Z,-11.75
2022-12-18T01:09:57.629Z,-11.85
2022-12-18T01:12:25.645Z,-11.85
2022-12-18T01:14:53.756Z,-11.55
2022-12-18T01:17:22.428Z,-11.37
2022-12-18T01:19:51.853Z,-10.89
2022-12-18T01:22:19.877Z,-10.26
2022-12-18T01:24:47.896Z,-10.55
2022-12-18T01:27:15.951Z,-10.48
2022-12-18T01:29:43.980Z,-10.29
2022-12-18T01:32:12.105Z,-10.33
2022-12-18T01:34:40.322Z,-10.44
2022-12-18T01:37:09.901Z,-10.38
2022-12-18T01:39:38.129Z,-10.64
2022-12-18T01:42:11.025Z,-10.46
2022-12-18T01:44:55.187Z,-10.84
2022-12-18T01:47:25.653Z,-10.88
2022-12-18T01:49:54.138Z,-10.67
2022-12-18T01:52:24.190Z,-10.64
2022-12-18T01:54:53.936Z,-10.64
2022-12-18T01:57:26.226Z,-10.43
2022-12-18T01:59:58.401Z,-10.85
2022-12-18T02:02:29.849Z,-10.84
2022-12-18T02:05:00.628Z,-10.66
2022-12-18T02:07:41.942Z,-11.18
2022-12-18T02:10:19.413Z,-11.19
2022-12-18T02:12:51.824Z,-11.26
2022-12-18T02:15:26.542Z,-11.19
2022-12-18T02:17:58.755Z,-11.21
2022-12-18T02:20:33.346Z,-10.99
2022-12-18T02:23:14.319Z,-10.89
2022-12-18T02:26:03.371Z,-10.86
2022-12-18T02:28:35.567Z,-11.24
2022-12-18T02:31:11.938Z,-11.27
2022-12-18T02:33:42.386Z,-11.25
2022-12-18T02:36:12.910Z,-10.79
2022-12-18T02:38:42.281Z,-11.36
2022-12-18T02:41:18.638Z,-11.43
2022-12-18T02:43:50.716Z,-11.42
2022-12-18T02:46:32.883Z,-11.25
2022-12-18T02:49:14.674Z,-11.16
2022-12-18T02:51:53.076Z,-11.09
2022-12-18T02:54:33.708Z,-10.87
2022-12-18T02:57:12.370Z,-10.61
2022-12-18T02:59:49.600Z,-9.74
2022-12-18T03:02:24.682Z,-9.93
2022-12-18T03:04:59.954Z,-10.50
2022-12-18T03:07:37.866Z,-10.62
2022-12-18T03:10:13.768Z,-10.85
2022-12-18T03:12:53.486Z,-10.16
2022-12-18T03:15:26.930Z,-9.47
2022-12-18T03:18:05.430Z,-10.19
2022-12-18T03:20:36.025Z,-9.53
2022-12-18T03:23:08.714Z,-9.90
2022-12-18T03:25:41.504Z,-10.27
2022-12-18T03:28:15.281Z,-10.88
2022-12-18T03:30:46.579Z,-10.85
2022-12-18T03:33:20.535Z,-10.87
2022-12-18T03:35:51.290Z,-10.32
2022-12-18T03:38:20.892Z,-11.16
2022-12-18T03:41:01.283Z,-10.84
2022-12-18T03:43:42.600Z,-10.22
2022-12-18T03:46:20.120Z,-9.67
2022-12-18T03:48:53.821Z,-9.96
2022-12-18T03:51:29.513Z,-10.06
2022-12-18T03:54:01.006Z,-10.04
2022-12-18T03:56:39.027Z,-10.44
2022-12-18T03:59:12.168Z,-10.07
2022-12-18T04:01:45.272Z,-9.95
2022-12-18T04:04:17.432Z,-9.05
2022-12-18T04:06:47.787Z,-8.62
2022-12-18T04:09:16.574Z,-8.21
2022-12-18T04:11:48.591Z,-8.09
2022-12-18T04:14:19.262Z,-8.04
2022-12-18T04:16:51.246Z,-8.15
2022-12-18T04:19:23.095Z,-8.49
2022-12-18T04:21:53.012Z,-8.19
2022-12-18T04:24:21.092Z,-9.05
2022-12-18T04:27:00.467Z,-9.52
2022-12-18T04:29:35.211Z,-9.47
2022-12-18T04:32:03.381Z,-9.23
2022-12-18T04:34:33.471Z,-9.50
2022-12-18T04:37:01.836Z,-8.75
2022-12-18T04:39:30.914Z,-9.00
2022-12-18T04:42:03.726Z,-8.42
2022-12-18T04:44:31.724Z,-8.80
2022-12-18T04:47:01.110Z,-8.46
2022-12-18T04:49:29.346Z,-8.45
2022-12-18T04:51:57.438Z,-8.24
2022-12-18T04:54:25.501Z,-8.39
2022-12-18T04:56:53.551Z,-8.72
2022-12-18T04:59:22.174Z,-8.73
2022-12-18T05:01:50.341Z,-8.92
2022-12-18T05:04:19.890Z,-8.57
2022-12-18T05:06:47.927Z,-9.15
2022-12-18T05:09:16.653Z,-8.70
2022-12-18T05:11:45.338Z,-9.15
2022-12-18T05:14:14.465Z,-8.89
2022-12-18T05:16:42.743Z,-8.25
2022-12-18T05:19:11.355Z,-8.51
2022-12-18T05:21:41.196Z,-8.77
2022-12-18T05:24:09.274Z,-8.56
2022-12-18T05:26:37.330Z,-8.48
2022-12-18T05:29:05.376Z,-7.83
2022-12-18T05:31:38.893Z,-8.22
2022-12-18T05:34:07.910Z,-8.37
2022-12-18T05:36:36.174Z,-8.64
2022-12-18T05:39:05.564Z,-7.98
2022-12-18T05:41:34.435Z,-8.65
2022-12-18T05:44:02.476Z,-8.53
2022-12-18T05:46:30.525Z,-8.92
2022-12-18T05:49:01.155Z,-8.83
2022-12-18T05:51:29.287Z,-8.90
2022-12-18T05:53:57.378Z,-9.19
2022-12-18T05:56:26.795Z,-9.22
2022-12-18T05:58:55.382Z,-9.03
2022-12-18T06:01:24.638Z,-8.69
2022-12-18T06:03:52.765Z,-9.08
2022-12-18T06:06:21.540Z,-9.13
2022-12-18T06:08:49.733Z,-8.71
2022-12-18T06:11:19.171Z,-9.03
2022-12-18T06:13:57.917Z,-9.06
2022-12-18T06:16:27.045Z,-9.07
2022-12-18T06:18:55.423Z,-9.00
2022-12-18T06:21:23.850Z,-8.37
2022-12-18T06:23:51.985Z,-8.99
2022-12-18T06:26:24.662Z,-8.22
2022-12-18T06:28:57.481Z,-9.01
2022-12-18T06:31:28.866Z,-9.05
2022-12-18T06:33:57.414Z,-9.14
2022-12-18T06:36:25.553Z,-9.39
2022-12-18T06:38:53.570Z,-8.99
2022-12-18T06:41:22.568Z,-9.39
2022-12-18T06:43:51.668Z,-9.22
2022-12-18T06:46:23.093Z,-9.25
2022-12-18T06:48:51.822Z,-9.11
2022-12-18T06:51:21.109Z,-9.01
2022-12-18T06:53:52.248Z,-8.75
2022-12-18T06:56:20.434Z,-8.98
2022-12-18T06:58:48.493Z,-9.40
2022-12-18T07:01:16.833Z,-8.89
2022-12-18T07:03:46.782Z,-8.46
2022-12-18T07:06:16.238Z,-9.21
2022-12-18T07:08:44.269Z,-9.19
2022-12-18T07:11:12.423Z,-8.74
2022-12-18T07:13:40.823Z,-9.30
2022-12-18T07:16:17.167Z,-8.81
2022-12-18T07:18:48.182Z,-9.08
2022-12-18T07:21:17.018Z,-8.57
2022-12-18T07:23:45.737Z,-8.72
2022-12-18T07:26:14.752Z,-9.06
2022-12-18T07:28:43.155Z,-8.85
2022-12-18T07:31:12.838Z,-8.97
2022-12-18T07:33:41.576Z,-8.72
2022-12-18T07:36:13.462Z,-9.43
2022-12-18T07:38:41.554Z,-9.06
2022-12-18T07:41:10.872Z,-8.46
2022-12-18T07:43:39.614Z,-9.23
2022-12-18T07:46:08.448Z,-8.59
2022-12-18T07:48:36.734Z,-8.84
2022-12-18T07:51:06.099Z,-8.80
2022-12-18T07:53:36.305Z,-8.84
2022-12-18T07:56:26.650Z,-8.71
2022-12-18T07:58:54.168Z,-8.36
2022-12-18T08:01:22.474Z,-9.18
2022-12-18T08:03:52.173Z,-8.80
2022-12-18T08:06:22.402Z,-8.25
2022-12-18T08:08:55.019Z,-8.75
2022-12-18T08:11:23.822Z,-8.37
2022-12-18T08:13:51.980Z,-8.33
2022-12-18T08:16:20.781Z,-8.37
2022-12-18T08:18:49.459Z,-8.11
2022-12-18T08:21:19.256Z,-8.18
2022-12-18T08:23:51.135Z,-8.13
2022-12-18T08:26:21.258Z,-8.48
2022-12-18T08:28:50.212Z,-7.98
2022-12-18T08:31:19.140Z,-8.12
2022-12-18T08:33:47.754Z,-8.36
2022-12-18T08:36:15.856Z,-8.61
2022-12-18T08:38:43.906Z,-8.54
2022-12-18T08:41:15.472Z,-8.75
2022-12-18T08:44:04.629Z,-8.27
2022-12-18T08:46:37.161Z,-7.50
2022-12-18T08:49:05.796Z,-8.24
2022-12-18T08:51:33.930Z,-7.59
2022-12-18T08:54:05.153Z,-8.31
2022-12-18T08:56:35.227Z,-8.12
2022-12-18T08:59:07.025Z,-7.56
2022-12-18T09:01:35.898Z,-7.33
2022-12-18T09:04:03.988Z,-7.54
2022-12-18T09:06:32.846Z,-7.78
2022-12-18T09:09:00.948Z,-7.61
2022-12-18T09:11:32.464Z,-7.51
2022-12-18T09:14:01.639Z,-7.48
2022-12-18T09:16:32.681Z,-7.20
2022-12-18T09:19:01.582Z,-7.41
2022-12-18T09:21:30.779Z,-7.70
2022-12-18T09:24:01.751Z,-7.69
2022-12-18T09:26:31.902Z,-7.60
2022-12-18T09:29:00.009Z,-7.49
2022-12-18T09:31:28.048Z,-7.19
2022-12-18T09:33:59.753Z,-7.05
2022-12-18T09:36:27.838Z,-7.13
2022-12-18T09:38:58.023Z,-7.03
2022-12-18T09:41:36.194Z,-7.08
2022-12-18T09:44:12.393Z,-7.03
2022-12-18T09:46:46.186Z,-7.09
2022-12-18T09:49:20.425Z,-7.02
2022-12-18T09:51:53.919Z,-7.09
2022-12-18T09:54:26.145Z,-7.01
2022-12-18T09:56:55.165Z,-6.93
2022-12-18T09:59:27.528Z,-6.77
2022-12-18T10:01:56.875Z,-6.80
2022-12-18T10:04:33.613Z,-6.65
2022-12-18T10:07:09.296Z,-6.56
2022-12-18T10:09:46.270Z,-6.50
2022-12-18T10:12:23.302Z,-6.51
2022-12-18T10:15:00.041Z,-6.39
2022-12-18T10:17:36.311Z,-6.38
2022-12-18T10:20:14.609Z,-6.24
2022-12-18T10:22:52.402Z,-6.15
2022-12-18T10:25:27.409Z,-6.27
2022-12-18T10:27:59.485Z,-6.10
2022-12-18T10:30:28.683Z,-6.14
2022-12-18T10:33:03.032Z,-5.63
2022-12-18T10:35:32.581Z,-5.62
2022-12-18T10:38:01.601Z,-5.62
2022-12-18T10:40:29.966Z,-5.59
2022-12-18T10:43:08.460Z,-5.41
2022-12-18T10:45:36.508Z,-5.43
2022-12-18T10:48:05.916Z,-5.37
2022-12-18T10:51:08.995Z,-5.38
2022-12-18T10:53:26.458Z,-5.37
2022-12-18T10:55:57.906Z,-5.29
2022-12-18T10:58:27.338Z,-5.24
2022-12-18T11:01:09.591Z,-5.05
2022-12-18T11:03:38.555Z,-4.97
2022-12-18T11:06:10.096Z,-5.01
2022-12-18T11:08:38.975Z,-4.92
2022-12-18T11:11:17.044Z,-4.74
2022-12-18T11:13:54.025Z,-4.88
2022-12-18T11:16:22.386Z,-4.68
2022-12-18T11:18:50.521Z,-4.52
2022-12-18T11:21:20.464Z,-4.31
2022-12-18T11:23:50.283Z,-4.09
2022-12-18T11:26:18.810Z,-3.94
2022-12-18T11:28:48.510Z,-3.88
2022-12-18T11:31:23.659Z,-4.11
2022-12-18T11:34:35.354Z,-3.95
2022-12-18T11:36:56.702Z,-3.73
2022-12-18T11:39:33.091Z,-3.83
2022-12-18T11:42:13.145Z,-3.98
2022-12-18T11:44:45.114Z,-3.90
2022-12-18T11:47:17.535Z,-3.68
2022-12-18T11:49:45.698Z,-3.20
2022-12-18T11:52:20.372Z,-3.36
2022-12-18T11:54:48.707Z,-3.49
2022-12-18T11:57:35.027Z,-3.28
2022-12-18T12:00:05.759Z,-3.46
2022-12-18T12:02:58.245Z,-3.04
2022-12-18T12:05:38.545Z,-3.29
2022-12-18T12:08:12.582Z,-3.31
2022-12-18T12:10:46.301Z,-3.34
2022-12-18T12:13:21.166Z,-2.78
2022-12-18T12:15:57.035Z,-2.98
2022-12-18T12:18:31.188Z,-2.90
2022-12-18T12:21:04.460Z,-3.32
2022-12-18T12:23:39.211Z,-2.91
2022-12-18T12:26:09.636Z,-2.68
2022-12-18T12:28:49.405Z,-3.01
2022-12-18T12:31:24.514Z,-3.05
2022-12-18T12:33:59.018Z,-2.76
2022-12-18T12:36:32.834Z,-2.88
2022-12-18T12:39:05.008Z,-2.03
2022-12-18T12:41:52.504Z,-2.54
2022-12-18T12:44:24.576Z,-2.26
2022-12-18T12:46:54.220Z,-2.77
2022-12-18T12:49:27.819Z,-2.94
2022-12-18T12:51:59.186Z,-2.87
2022-12-18T12:54:30.346Z,-2.70
2022-12-18T12:57:05.285Z,-2.40
2022-12-18T12:59:40.937Z,-2.42
2022-12-18T13:02:16.984Z,-2.57
2022-12-18T13:04:49.308Z,-2.72
2022-12-18T13:07:20.255Z,-2.94
2022-12-18T13:10:06.266Z,-2.98
2022-12-18T13:12:53.184Z,-3.11
2022-12-18T13:15:23.835Z,-2.96
2022-12-18T13:18:05.012Z,-3.09
2022-12-18T13:20:36.046Z,-2.79
2022-12-18T13:23:21.164Z,-2.79
2022-12-18T13:25:50.504Z,-2.71
2022-12-18T13:28:40.566Z,-2.48
2022-12-18T13:31:08.671Z,-2.89
2022-12-18T13:34:02.127Z,-2.71
2022-12-18T13:36:30.982Z,-2.97
2022-12-18T13:39:27.662Z,-2.75
2022-12-18T13:42:33.235Z,-3.01
2022-12-18T13:45:03.499Z,-2.69
2022-12-18T13:47:34.281Z,-2.89
2022-12-18T13:50:03.738Z,-2.81
2022-12-18T13:52:36.813Z,-2.82
2022-12-18T13:55:07.748Z,-2.84
2022-12-18T13:57:39.240Z,-2.20
2022-12-18T14:00:25.929Z,-2.55
2022-12-18T14:02:54.396Z,-2.39
2022-12-18T14:05:26.181Z,-2.66
2022-12-18T14:07:54.645Z,-2.71
2022-12-18T14:10:48.021Z,-2.90
2022-12-18T14:13:19.497Z,-2.66
2022-12-18T14:15:51.117Z,-2.90
2022-12-18T14:18:22.790Z,-2.87
2022-12-18T14:20:53.088Z,-2.83
2022-12-18T14:23:39.739Z,-2.81
2022-12-18T14:26:21.866Z,-2.91
2022-12-18T14:28:52.334Z,-2.76
2022-12-18T14:31:22.644Z,-2.97
2022-12-18T14:33:52.231Z,-2.99
2022-12-18T14:36:21.247Z,-2.89
2022-12-18T14:38:52.437Z,-2.91
2022-12-18T14:41:21.133Z,-2.85
2022-12-18T14:43:50.046Z,-3.10
2022-12-18T14:46:33.766Z,-2.97
2022-12-18T14:49:02.943Z,-3.01
2022-12-18T14:51:35.209Z,-3.12
2022-12-18T14:54:04.372Z,-3.05
2022-12-18T14:56:33.232Z,-2.99
2022-12-18T14:59:02.129Z,-3.19
2022-12-18T15:01:33.681Z,-3.22
2022-12-18T15:04:03.205Z,-3.19
2022-12-18T15:06:35.567Z,-3.21
2022-12-18T15:09:05.429Z,-3.22
2022-12-18T15:11:37.924Z,-3.29
2022-12-18T15:14:25.291Z,-3.05
2022-12-18T15:16:56.441Z,-3.17
2022-12-18T15:19:30.621Z,-3.05
2022-12-18T15:22:04.451Z,-3.16
2022-12-18T15:24:37.256Z,-3.49
2022-12-18T15:27:06.041Z,-3.46
2022-12-18T15:29:34.182Z,-2.86
2022-12-18T15:32:05.438Z,-3.18
2022-12-18T15:34:34.872Z,-3.11
2022-12-18T15:37:03.036Z,-3.60
2022-12-18T15:39:31.077Z,-3.43
2022-12-18T15:42:16.807Z,-3.42
2022-12-18T15:44:45.532Z,-3.70
2022-12-18T15:47:15.069Z,-3.63
2022-12-18T15:49:45.644Z,-3.79
2022-12-18T15:52:15.250Z,-3.75
2022-12-18T15:55:00.914Z,-3.84
2022-12-18T15:57:29.096Z,-3.79
2022-12-18T15:59:59.074Z,-3.55
2022-12-18T16:02:29.632Z,-3.89
2022-12-18T16:04:58.145Z,-3.57
2022-12-18T16:07:29.146Z,-3.66
2022-12-18T16:09:58.852Z,-3.76
2022-12-18T16:12:28.433Z,-3.64
2022-12-18T16:14:56.500Z,-3.54
2022-12-18T16:17:24.647Z,-3.76
2022-12-18T16:19:54.073Z,-3.81
2022-12-18T16:22:23.503Z,-3.70
2022-12-18T16:24:52.137Z,-3.71
2022-12-18T16:27:20.499Z,-3.76
2022-12-18T16:29:48.549Z,-3.12
2022-12-18T16:32:17.673Z,-3.70
2022-12-18T16:34:46.273Z,-3.73
2022-12-18T16:37:16.705Z,-3.74
2022-12-18T16:39:45.100Z,-3.75
2022-12-18T16:42:15.477Z,-3.68
2022-12-18T16:44:43.720Z,-3.39
2022-12-18T16:47:15.197Z,-3.26
2022-12-18T16:49:45.283Z,-3.09
2022-12-18T16:52:15.860Z,-3.40
2022-12-18T16:54:44.343Z,-3.39
2022-12-18T16:57:14.075Z,-3.04
2022-12-18T16:59:42.107Z,-3.15
2022-12-18T17:02:14.169Z,-3.11
2022-12-18T17:04:42.429Z,-3.22
2022-12-18T17:07:10.851Z,-3.20
2022-12-18T17:09:40.605Z,-2.60
2022-12-18T17:12:09.138Z,-3.18
2022-12-18T17:14:37.330Z,-3.24
2022-12-18T17:17:22.613Z,-2.87
2022-12-18T17:19:51.889Z,-3.12
2022-12-18T17:22:23.037Z,-3.02
2022-12-18T17:24:52.539Z,-3.17
2022-12-18T17:27:20.598Z,-3.16
2022-12-18T17:29:49.104Z,-3.05
2022-12-18T17:32:17.481Z,-3.16
2022-12-18T17:34:45.581Z,-3.18
2022-12-18T17:37:14.002Z,-2.91
2022-12-18T17:39:44.419Z,-3.15
2022-12-18T17:42:15.569Z,-3.05
2022-12-18T17:44:44.274Z,-3.01
2022-12-18T17:47:12.922Z,-3.05
2022-12-18T17:49:41.115Z,-3.03
2022-12-18T17:52:09.189Z,-3.13
2022-12-18T17:54:39.643Z,-3.01
2022-12-18T17:57:07.878Z,-3.12
2022-12-18T17:59:37.286Z,-3.20
2022-12-18T18:02:05.492Z,-3.27
2022-12-18T18:04:34.221Z,-3.31
2022-12-18T18:07:02.982Z,-3.19
2022-12-18T18:09:31.136Z,-3.31
2022-12-18T18:12:16.799Z,-3.34
2022-12-18T18:14:46.397Z,-3.32
2022-12-18T18:17:14.803Z,-3.25
2022-12-18T18:19:44.176Z,-3.29
2022-12-18T18:22:17.576Z,-3.22
2022-12-18T18:24:46.809Z,-3.27
2022-12-18T18:27:17.144Z,-3.23
2022-12-18T18:29:47.667Z,-3.22
2022-12-18T18:32:15.745Z,-3.19
2022-12-18T18:34:46.052Z,-3.24
2022-12-18T18:37:14.061Z,-3.12
2022-12-18T18:39:44.675Z,-3.06
2022-12-18T18:42:12.703Z,-3.35
2022-12-18T18:44:45.753Z,-3.09
2022-12-18T18:47:18.307Z,-3.15
2022-12-18T18:49:46.345Z,-3.14
2022-12-18T18:52:14.377Z,-3.09
2022-12-18T18:55:03.804Z,-3.11
2022-12-18T18:57:30.895Z,-2.97
2022-12-18T18:59:59.029Z,-3.14
2022-12-18T19:02:28.637Z,-3.20
2022-12-18T19:04:57.387Z,-3.23
2022-12-18T19:07:30.384Z,-3.18
2022-12-18T19:10:04.608Z,-3.20
2022-12-18T19:12:50.978Z,-3.15
2022-12-18T19:15:19.029Z,-3.25
2022-12-18T19:17:48.830Z,-3.31
2022-12-18T19:20:17.467Z,-3.35
2022-12-18T19:22:49.020Z,-3.37
2022-12-18T19:25:25.780Z,-3.30
2022-12-18T19:28:06.116Z,-3.41
2022-12-18T19:30:39.017Z,-3.26
2022-12-18T19:33:26.800Z,-3.17
2022-12-18T19:35:56.376Z,-3.31
2022-12-18T19:38:24.540Z,-3.24
2022-12-18T19:40:52.803Z,-3.29
2022-12-18T19:43:20.897Z,-3.12
2022-12-18T19:45:55.106Z,-3.13
2022-12-18T19:48:24.536Z,-3.22
2022-12-18T19:50:52.589Z,-3.38
2022-12-18T19:53:20.993Z,-2.87
2022-12-18T19:55:48.967Z,-2.73
2022-12-18T19:58:18.274Z,-3.12
2022-12-18T20:00:48.622Z,-3.22
2022-12-18T20:03:27.151Z,-3.22
2022-12-18T20:06:10.593Z,-3.27
2022-12-18T20:08:41.449Z,-3.19
2022-12-18T20:11:09.597Z,-3.17
2022-12-18T20:13:37.730Z,-3.28
2022-12-18T20:16:06.318Z,-3.23
2022-12-18T20:18:34.494Z,-3.21
2022-12-18T20:21:02.603Z,-3.16
2022-12-18T20:23:34.318Z,-3.14
2022-12-18T20:26:05.281Z,-3.27
2022-12-18T20:28:36.649Z,-3.18
2022-12-18T20:31:08.289Z,-3.13
2022-12-18T20:33:39.212Z,-3.14
2022-12-18T20:36:08.988Z,-3.06
2022-12-18T20:38:39.574Z,-3.03
2022-12-18T20:41:10.707Z,-3.06
2022-12-18T20:43:39.204Z,-3.11
2022-12-18T20:46:08.859Z,-3.08
2022-12-18T20:48:39.150Z,-3.02
2022-12-18T20:51:08.517Z,-3.01
2022-12-18T20:53:36.726Z,-3.08
2022-12-18T20:56:08.863Z,-3.04
2022-12-18T20:58:37.059Z,-3.06
2022-12-18T21:01:06.752Z,-3.00
2022-12-18T21:03:37.862Z,-2.89
2022-12-18T21:06:06.235Z,-2.93
2022-12-18T21:08:34.209Z,-2.90
2022-12-18T21:11:35.352Z,-2.87
2022-12-18T21:14:06.516Z,-2.89
2022-12-18T21:16:34.585Z,-2.76
2022-12-18T21:19:02.651Z,-2.73
2022-12-18T21:21:30.694Z,-2.85
2022-12-18T21:24:04.103Z,-2.81
2022-12-18T21:26:33.610Z,-2.89
2022-12-18T21:29:02.962Z,-2.83
2022-12-18T21:31:31.962Z,-2.75
2022-12-18T21:34:01.869Z,-2.80
2022-12-18T21:36:30.690Z,-2.77
2022-12-18T21:38:59.460Z,-2.78
2022-12-18T21:41:45.996Z,-2.66
2022-12-18T21:44:16.961Z,-2.75
2022-12-18T21:46:48.990Z,-2.71
2022-12-18T21:49:22.195Z,-2.67
2022-12-18T21:51:51.089Z,-2.71
2022-12-18T21:54:20.207Z,-2.73
2022-12-18T21:56:49.529Z,-2.64
2022-12-18T22:02:36.453Z,-2.62
2022-12-18T22:05:04.843Z,-2.57
2022-12-18T22:07:33.222Z,-2.71
2022-12-18T22:10:03.636Z,-2.70
2022-12-18T22:12:42.899Z,-2.65
2022-12-18T22:15:12.450Z,-2.76
2022-12-18T22:17:47.643Z,-2.74
2022-12-18T22:20:16.025Z,-2.73
2022-12-18T22:22:46.270Z,-2.65
2022-12-18T22:25:16.380Z,-2.55
2022-12-18T22:28:04.420Z,-2.59
2022-12-18T22:30:31.542Z,-2.64
2022-12-18T22:33:01.013Z,-2.61
2022-12-18T22:35:29.074Z,-2.53
2022-12-18T22:37:58.934Z,-2.63
2022-12-18T22:40:27.363Z,-2.55
2022-12-18T22:42:55.901Z,-2.53
2022-12-18T22:45:24.245Z,-2.46
2022-12-18T22:47:52.296Z,-2.58
2022-12-18T22:50:23.953Z,-2.60
2022-12-18T22:52:52.045Z,-2.57
2022-12-18T22:55:20.477Z,-2.49
2022-12-18T22:57:49.252Z,-2.61
2022-12-18T23:00:17.633Z,-2.54
2022-12-18T23:02:59.196Z,-2.42
2022-12-18T23:05:29.310Z,-2.48
2022-12-18T23:07:58.334Z,-2.48
2022-12-18T23:10:27.530Z,-2.47
2022-12-18T23:12:55.623Z,-2.61
2022-12-18T23:15:27.791Z,-2.41
2022-12-18T23:17:59.597Z,-2.21
2022-12-18T23:20:29.056Z,-2.21
2022-12-18T23:22:57.044Z,-1.68
2022-12-18T23:25:25.055Z,-1.15
2022-12-18T23:27:55.413Z,-1.88
2022-12-18T23:30:23.566Z,-1.79
2022-12-18T23:32:51.630Z,-1.78
2022-12-18T23:35:19.839Z,-2.37
2022-12-18T23:37:58.957Z,-2.48
2022-12-18T23:40:27.807Z,-2.47
2022-12-18T23:42:55.825Z,-2.38
2022-12-18T23:45:23.871Z,-2.22
2022-12-18T23:47:51.948Z,-2.31
2022-12-18T23:50:22.082Z,-2.43
2022-12-18T23:53:05.603Z,-2.22
2022-12-18T23:55:34.932Z,-2.17
2022-12-18T23:58:02.995Z,-2.40
